sensor_id;sensor_type;location;lat;lon;timestamp;temperature;humidity
21019;DHT22;10667;51.056;3.732;2023-04-15T00:02:00;12.60;99.90
21019;DHT22;10667;51.056;3.732;2023-04-15T00:04:26;12.60;99.90
21019;DHT22;10667;51.056;3.732;2023-04-15T00:06:52;12.50;99.90
21019;DHT22;10667;51.056;3.732;2023-04-15T00:09:19;12.40;99.90
21019;DHT22;10667;51.056;3.732;2023-04-15T00:11:45;12.40;99.90
21019;DHT22;10667;51.056;3.732;2023-04-15T00:14:13;12.40;99.90
21019;DHT22;10667;51.056;3.732;2023-04-15T00:16:39;12.40;99.90
21019;DHT22;10667;51.056;3.732;2023-04-15T00:19:05;12.40;99.90
21019;DHT22;10667;51.056;3.732;2023-04-15T00:21:31;12.50;99.90
21019;DHT22;10667;51.056;3.732;2023-04-15T00:23:57;12.70;99.90
21019;DHT22;10667;51.056;3.732;2023-04-15T00:26:22;12.70;99.90
21019;DHT22;10667;51.056;3.732;2023-04-15T00:28:49;12.70;99.90
21019;DHT22;10667;51.056;3.732;2023-04-15T00:31:14;12.60;99.90
21019;DHT22;10667;51.056;3.732;2023-04-15T00:33:40;12.60;99.90
21019;DHT22;10667;51.056;3.732;2023-04-15T00:36:06;12.60;99.90
21019;DHT22;10667;51.056;3.732;2023-04-15T00:38:33;12.60;99.90
21019;DHT22;10667;51.056;3.732;2023-04-15T00:40:58;12.80;99.90
21019;DHT22;10667;51.056;3.732;2023-04-15T00:43:24;12.90;99.90
21019;DHT22;10667;51.056;3.732;2023-04-15T00:45:52;12.70;99.90
21019;DHT22;10667;51.056;3.732;2023-04-15T00:48:19;12.60;99.90
21019;DHT22;10667;51.056;3.732;2023-04-15T00:50:45;12.40;99.90
21019;DHT22;10667;51.056;3.732;2023-04-15T00:53:11;12.30;99.90
21019;DHT22;10667;51.056;3.732;2023-04-15T00:55:37;12.40;99.90
21019;DHT22;10667;51.056;3.732;2023-04-15T00:58:02;12.40;99.90
21019;DHT22;10667;51.056;3.732;2023-04-15T01:00:28;12.40;99.90
21019;DHT22;10667;51.056;3.732;2023-04-15T01:02:54;12.30;99.90
21019;DHT22;10667;51.056;3.732;2023-04-15T01:05:20;12.40;99.90
21019;DHT22;10667;51.056;3.732;2023-04-15T01:07:47;12.40;99.90
21019;DHT22;10667;51.056;3.732;2023-04-15T01:10:13;12.30;99.90
21019;DHT22;10667;51.056;3.732;2023-04-15T01:12:38;12.40;99.90
21019;DHT22;10667;51.056;3.732;2023-04-15T01:15:05;12.50;99.90
21019;DHT22;10667;51.056;3.732;2023-04-15T01:17:31;12.60;99.90
21019;DHT22;10667;51.056;3.732;2023-04-15T01:19:57;12.50;99.90
21019;DHT22;10667;51.056;3.732;2023-04-15T01:22:23;12.60;99.90
21019;DHT22;10667;51.056;3.732;2023-04-15T01:24:56;12.70;99.90
21019;DHT22;10667;51.056;3.732;2023-04-15T01:27:23;12.50;99.90
21019;DHT22;10667;51.056;3.732;2023-04-15T01:29:49;12.30;99.90
21019;DHT22;10667;51.056;3.732;2023-04-15T01:32:15;12.20;99.90
21019;DHT22;10667;51.056;3.732;2023-04-15T01:34:40;12.10;99.90
21019;DHT22;10667;51.056;3.732;2023-04-15T01:37:06;12.10;99.90
21019;DHT22;10667;51.056;3.732;2023-04-15T01:39:32;11.70;99.90
21019;DHT22;10667;51.056;3.732;2023-04-15T01:41:58;11.70;99.90
21019;DHT22;10667;51.056;3.732;2023-04-15T01:44:23;11.70;99.90
21019;DHT22;10667;51.056;3.732;2023-04-15T01:46:49;11.60;99.90
21019;DHT22;10667;51.056;3.732;2023-04-15T01:49:14;11.50;99.90
21019;DHT22;10667;51.056;3.732;2023-04-15T01:51:41;11.40;99.90
21019;DHT22;10667;51.056;3.732;2023-04-15T01:54:06;11.20;99.90
21019;DHT22;10667;51.056;3.732;2023-04-15T01:56:32;11.10;99.90
21019;DHT22;10667;51.056;3.732;2023-04-15T01:58:58;11.00;99.90
21019;DHT22;10667;51.056;3.732;2023-04-15T02:01:24;11.00;99.90
21019;DHT22;10667;51.056;3.732;2023-04-15T02:03:50;11.00;99.90
21019;DHT22;10667;51.056;3.732;2023-04-15T02:06:15;11.00;99.90
21019;DHT22;10667;51.056;3.732;2023-04-15T02:08:41;10.90;99.90
21019;DHT22;10667;51.056;3.732;2023-04-15T02:11:07;10.90;99.90
21019;DHT22;10667;51.056;3.732;2023-04-15T02:13:33;10.80;99.90
21019;DHT22;10667;51.056;3.732;2023-04-15T02:15:59;10.80;99.90
21019;DHT22;10667;51.056;3.732;2023-04-15T02:18:25;10.70;99.90
21019;DHT22;10667;51.056;3.732;2023-04-15T02:20:51;10.60;99.90
21019;DHT22;10667;51.056;3.732;2023-04-15T02:23:17;10.70;99.90
21019;DHT22;10667;51.056;3.732;2023-04-15T02:25:43;10.70;99.90
21019;DHT22;10667;51.056;3.732;2023-04-15T02:28:08;10.70;99.90
21019;DHT22;10667;51.056;3.732;2023-04-15T02:30:34;10.70;99.90
21019;DHT22;10667;51.056;3.732;2023-04-15T02:33:00;10.70;99.90
21019;DHT22;10667;51.056;3.732;2023-04-15T02:35:26;10.70;99.90
21019;DHT22;10667;51.056;3.732;2023-04-15T02:37:52;10.90;99.90
21019;DHT22;10667;51.056;3.732;2023-04-15T02:40:18;11.00;99.90
21019;DHT22;10667;51.056;3.732;2023-04-15T02:42:44;10.90;99.90
21019;DHT22;10667;51.056;3.732;2023-04-15T02:45:10;10.70;99.90
21019;DHT22;10667;51.056;3.732;2023-04-15T02:47:39;10.60;99.90
21019;DHT22;10667;51.056;3.732;2023-04-15T02:50:09;10.60;99.90
21019;DHT22;10667;51.056;3.732;2023-04-15T02:52:38;10.40;99.90
21019;DHT22;10667;51.056;3.732;2023-04-15T02:55:04;10.50;99.90
21019;DHT22;10667;51.056;3.732;2023-04-15T02:57:30;10.60;99.90
21019;DHT22;10667;51.056;3.732;2023-04-15T02:59:56;10.60;99.90
21019;DHT22;10667;51.056;3.732;2023-04-15T03:02:22;10.80;99.90
21019;DHT22;10667;51.056;3.732;2023-04-15T03:04:48;10.70;99.90
21019;DHT22;10667;51.056;3.732;2023-04-15T03:07:14;10.80;99.90
21019;DHT22;10667;51.056;3.732;2023-04-15T03:09:40;10.90;99.90
21019;DHT22;10667;51.056;3.732;2023-04-15T03:12:05;10.80;99.90
21019;DHT22;10667;51.056;3.732;2023-04-15T03:14:31;10.80;99.90
21019;DHT22;10667;51.056;3.732;2023-04-15T03:16:57;10.70;99.90
21019;DHT22;10667;51.056;3.732;2023-04-15T03:19:24;10.70;99.90
21019;DHT22;10667;51.056;3.732;2023-04-15T03:21:50;10.60;99.90
21019;DHT22;10667;51.056;3.732;2023-04-15T03:24:16;10.80;99.90
21019;DHT22;10667;51.056;3.732;2023-04-15T03:26:42;11.00;99.90
21019;DHT22;10667;51.056;3.732;2023-04-15T03:29:08;11.00;99.90
21019;DHT22;10667;51.056;3.732;2023-04-15T03:31:34;11.20;99.90
21019;DHT22;10667;51.056;3.732;2023-04-15T03:33:59;11.20;99.90
21019;DHT22;10667;51.056;3.732;2023-04-15T03:36:27;11.00;99.90
21019;DHT22;10667;51.056;3.732;2023-04-15T03:38:53;11.10;99.90
21019;DHT22;10667;51.056;3.732;2023-04-15T03:41:20;11.00;99.90
21019;DHT22;10667;51.056;3.732;2023-04-15T03:43:46;11.00;99.90
21019;DHT22;10667;51.056;3.732;2023-04-15T03:46:11;11.00;99.90
21019;DHT22;10667;51.056;3.732;2023-04-15T03:48:37;11.00;99.90
21019;DHT22;10667;51.056;3.732;2023-04-15T03:51:03;11.00;99.90
21019;DHT22;10667;51.056;3.732;2023-04-15T03:53:28;10.90;99.90
21019;DHT22;10667;51.056;3.732;2023-04-15T03:55:54;10.80;99.90
21019;DHT22;10667;51.056;3.732;2023-04-15T03:58:19;10.70;99.90
21019;DHT22;10667;51.056;3.732;2023-04-15T04:00:45;10.70;99.90
21019;DHT22;10667;51.056;3.732;2023-04-15T04:03:11;11.00;99.90
21019;DHT22;10667;51.056;3.732;2023-04-15T04:05:36;11.10;99.90
21019;DHT22;10667;51.056;3.732;2023-04-15T04:08:03;11.10;99.90
21019;DHT22;10667;51.056;3.732;2023-04-15T04:10:29;11.20;99.90
21019;DHT22;10667;51.056;3.732;2023-04-15T04:12:54;11.20;99.90
21019;DHT22;10667;51.056;3.732;2023-04-15T04:15:20;11.20;99.90
21019;DHT22;10667;51.056;3.732;2023-04-15T04:17:46;11.10;99.90
21019;DHT22;10667;51.056;3.732;2023-04-15T04:20:11;11.00;99.90
21019;DHT22;10667;51.056;3.732;2023-04-15T04:22:38;11.00;99.90
21019;DHT22;10667;51.056;3.732;2023-04-15T04:25:07;11.00;99.90
21019;DHT22;10667;51.056;3.732;2023-04-15T04:27:33;11.00;99.90
21019;DHT22;10667;51.056;3.732;2023-04-15T04:29:59;11.00;99.90
21019;DHT22;10667;51.056;3.732;2023-04-15T04:32:25;11.00;99.90
21019;DHT22;10667;51.056;3.732;2023-04-15T04:34:50;11.00;99.90
21019;DHT22;10667;51.056;3.732;2023-04-15T04:37:16;10.90;99.90
21019;DHT22;10667;51.056;3.732;2023-04-15T04:39:42;10.80;99.90
21019;DHT22;10667;51.056;3.732;2023-04-15T04:42:07;10.80;99.90
21019;DHT22;10667;51.056;3.732;2023-04-15T04:44:33;10.90;99.90
21019;DHT22;10667;51.056;3.732;2023-04-15T04:46:59;10.80;99.90
21019;DHT22;10667;51.056;3.732;2023-04-15T04:49:25;10.90;99.90
21019;DHT22;10667;51.056;3.732;2023-04-15T04:51:51;10.90;99.90
21019;DHT22;10667;51.056;3.732;2023-04-15T04:54:16;10.90;99.90
21019;DHT22;10667;51.056;3.732;2023-04-15T04:56:42;10.80;99.90
21019;DHT22;10667;51.056;3.732;2023-04-15T04:59:08;10.70;99.90
21019;DHT22;10667;51.056;3.732;2023-04-15T05:01:34;10.70;99.90
21019;DHT22;10667;51.056;3.732;2023-04-15T05:03:59;10.70;99.90
21019;DHT22;10667;51.056;3.732;2023-04-15T05:06:25;10.50;99.90
21019;DHT22;10667;51.056;3.732;2023-04-15T05:08:52;10.40;99.90
21019;DHT22;10667;51.056;3.732;2023-04-15T05:11:17;10.30;99.90
21019;DHT22;10667;51.056;3.732;2023-04-15T05:13:43;10.20;99.90
21019;DHT22;10667;51.056;3.732;2023-04-15T05:16:08;10.30;99.90
21019;DHT22;10667;51.056;3.732;2023-04-15T05:18:34;10.40;99.90
21019;DHT22;10667;51.056;3.732;2023-04-15T05:21:01;10.50;99.90
21019;DHT22;10667;51.056;3.732;2023-04-15T05:23:27;10.50;99.90
21019;DHT22;10667;51.056;3.732;2023-04-15T05:25:52;10.60;99.90
21019;DHT22;10667;51.056;3.732;2023-04-15T05:28:18;10.60;99.90
21019;DHT22;10667;51.056;3.732;2023-04-15T05:30:44;10.50;99.90
21019;DHT22;10667;51.056;3.732;2023-04-15T05:33:10;10.50;99.90
21019;DHT22;10667;51.056;3.732;2023-04-15T05:35:36;10.60;99.90
21019;DHT22;10667;51.056;3.732;2023-04-15T05:38:03;10.90;99.90
21019;DHT22;10667;51.056;3.732;2023-04-15T05:40:29;11.10;99.90
21019;DHT22;10667;51.056;3.732;2023-04-15T05:42:55;11.10;99.90
21019;DHT22;10667;51.056;3.732;2023-04-15T05:45:21;11.00;99.90
21019;DHT22;10667;51.056;3.732;2023-04-15T05:47:47;10.90;99.90
21019;DHT22;10667;51.056;3.732;2023-04-15T05:50:15;10.80;99.90
21019;DHT22;10667;51.056;3.732;2023-04-15T05:52:41;10.90;99.90
21019;DHT22;10667;51.056;3.732;2023-04-15T05:55:07;10.90;99.90
21019;DHT22;10667;51.056;3.732;2023-04-15T05:57:32;10.90;99.90
21019;DHT22;10667;51.056;3.732;2023-04-15T05:59:58;10.80;99.90
21019;DHT22;10667;51.056;3.732;2023-04-15T06:02:24;10.80;99.90
21019;DHT22;10667;51.056;3.732;2023-04-15T06:04:49;10.90;99.90
21019;DHT22;10667;51.056;3.732;2023-04-15T06:07:15;11.00;99.90
21019;DHT22;10667;51.056;3.732;2023-04-15T06:09:41;10.80;99.90
21019;DHT22;10667;51.056;3.732;2023-04-15T06:12:06;11.00;99.90
21019;DHT22;10667;51.056;3.732;2023-04-15T06:14:38;11.10;99.90
21019;DHT22;10667;51.056;3.732;2023-04-15T06:17:04;11.20;99.90
21019;DHT22;10667;51.056;3.732;2023-04-15T06:19:30;11.30;99.90
21019;DHT22;10667;51.056;3.732;2023-04-15T06:21:57;11.00;99.90
21019;DHT22;10667;51.056;3.732;2023-04-15T06:24:23;10.80;99.90
21019;DHT22;10667;51.056;3.732;2023-04-15T06:26:48;10.90;99.90
21019;DHT22;10667;51.056;3.732;2023-04-15T06:29:14;11.10;99.90
21019;DHT22;10667;51.056;3.732;2023-04-15T06:31:39;11.30;99.90
21019;DHT22;10667;51.056;3.732;2023-04-15T06:34:05;11.30;99.90
21019;DHT22;10667;51.056;3.732;2023-04-15T06:36:31;11.30;99.90
21019;DHT22;10667;51.056;3.732;2023-04-15T06:38:57;11.40;99.90
21019;DHT22;10667;51.056;3.732;2023-04-15T06:41:23;11.50;99.90
21019;DHT22;10667;51.056;3.732;2023-04-15T06:43:49;11.50;99.90
21019;DHT22;10667;51.056;3.732;2023-04-15T06:46:14;11.70;99.90
21019;DHT22;10667;51.056;3.732;2023-04-15T06:48:40;11.80;99.90
21019;DHT22;10667;51.056;3.732;2023-04-15T06:51:06;11.80;99.90
21019;DHT22;10667;51.056;3.732;2023-04-15T06:53:31;11.70;99.90
21019;DHT22;10667;51.056;3.732;2023-04-15T06:55:57;11.80;99.90
21019;DHT22;10667;51.056;3.732;2023-04-15T06:58:23;11.80;99.90
21019;DHT22;10667;51.056;3.732;2023-04-15T07:00:49;11.80;99.90
21019;DHT22;10667;51.056;3.732;2023-04-15T07:03:14;11.80;99.90
21019;DHT22;10667;51.056;3.732;2023-04-15T07:05:40;11.90;99.90
21019;DHT22;10667;51.056;3.732;2023-04-15T07:08:06;12.00;99.90
21019;DHT22;10667;51.056;3.732;2023-04-15T07:10:33;12.00;99.90
21019;DHT22;10667;51.056;3.732;2023-04-15T07:12:58;12.20;99.90
21019;DHT22;10667;51.056;3.732;2023-04-15T07:15:24;12.20;99.90
21019;DHT22;10667;51.056;3.732;2023-04-15T07:17:50;12.20;99.90
21019;DHT22;10667;51.056;3.732;2023-04-15T07:20:15;12.30;99.90
21019;DHT22;10667;51.056;3.732;2023-04-15T07:22:41;12.40;99.90
21019;DHT22;10667;51.056;3.732;2023-04-15T07:25:07;12.60;99.90
21019;DHT22;10667;51.056;3.732;2023-04-15T07:27:33;12.50;99.90
21019;DHT22;10667;51.056;3.732;2023-04-15T07:29:59;12.50;99.90
21019;DHT22;10667;51.056;3.732;2023-04-15T07:32:24;12.80;99.90
21019;DHT22;10667;51.056;3.732;2023-04-15T07:34:50;12.90;99.90
21019;DHT22;10667;51.056;3.732;2023-04-15T07:37:16;13.10;99.90
21019;DHT22;10667;51.056;3.732;2023-04-15T07:39:42;13.30;99.90
21019;DHT22;10667;51.056;3.732;2023-04-15T07:42:08;13.20;99.90
21019;DHT22;10667;51.056;3.732;2023-04-15T07:44:33;13.40;99.90
21019;DHT22;10667;51.056;3.732;2023-04-15T07:47:01;13.40;99.90
21019;DHT22;10667;51.056;3.732;2023-04-15T07:49:27;13.10;99.90
21019;DHT22;10667;51.056;3.732;2023-04-15T07:51:52;13.10;99.90
21019;DHT22;10667;51.056;3.732;2023-04-15T07:54:18;13.00;99.90
21019;DHT22;10667;51.056;3.732;2023-04-15T07:56:44;13.10;99.90
21019;DHT22;10667;51.056;3.732;2023-04-15T07:59:09;13.10;99.90
21019;DHT22;10667;51.056;3.732;2023-04-15T08:01:36;13.20;99.90
21019;DHT22;10667;51.056;3.732;2023-04-15T08:04:02;13.00;99.90
21019;DHT22;10667;51.056;3.732;2023-04-15T08:06:28;13.10;99.90
21019;DHT22;10667;51.056;3.732;2023-04-15T08:08:54;13.20;99.90
21019;DHT22;10667;51.056;3.732;2023-04-15T08:11:20;13.40;99.90
21019;DHT22;10667;51.056;3.732;2023-04-15T08:13:47;13.60;99.90
21019;DHT22;10667;51.056;3.732;2023-04-15T08:16:17;13.60;99.90
21019;DHT22;10667;51.056;3.732;2023-04-15T08:18:48;13.50;99.90
21019;DHT22;10667;51.056;3.732;2023-04-15T08:21:15;13.50;99.90
21019;DHT22;10667;51.056;3.732;2023-04-15T08:23:41;13.50;99.90
21019;DHT22;10667;51.056;3.732;2023-04-15T08:26:08;13.60;99.90
21019;DHT22;10667;51.056;3.732;2023-04-15T08:28:34;13.60;99.90
21019;DHT22;10667;51.056;3.732;2023-04-15T08:31:00;13.80;99.90
21019;DHT22;10667;51.056;3.732;2023-04-15T08:33:26;13.90;99.90
21019;DHT22;10667;51.056;3.732;2023-04-15T08:35:53;14.00;99.90
21019;DHT22;10667;51.056;3.732;2023-04-15T08:38:19;14.10;99.90
21019;DHT22;10667;51.056;3.732;2023-04-15T08:40:45;14.30;99.90
21019;DHT22;10667;51.056;3.732;2023-04-15T08:43:34;14.30;99.90
21019;DHT22;10667;51.056;3.732;2023-04-15T08:46:00;14.20;99.90
21019;DHT22;10667;51.056;3.732;2023-04-15T08:48:32;14.30;99.90
21019;DHT22;10667;51.056;3.732;2023-04-15T08:50:59;14.20;99.90
21019;DHT22;10667;51.056;3.732;2023-04-15T08:53:27;14.40;99.90
21019;DHT22;10667;51.056;3.732;2023-04-15T08:55:56;14.20;99.90
21019;DHT22;10667;51.056;3.732;2023-04-15T08:58:23;14.30;99.90
21019;DHT22;10667;51.056;3.732;2023-04-15T09:00:49;14.20;99.90
21019;DHT22;10667;51.056;3.732;2023-04-15T09:03:15;14.40;99.90
21019;DHT22;10667;51.056;3.732;2023-04-15T09:05:42;14.60;99.90
21019;DHT22;10667;51.056;3.732;2023-04-15T09:08:07;14.80;99.90
21019;DHT22;10667;51.056;3.732;2023-04-15T09:10:33;14.70;99.90
21019;DHT22;10667;51.056;3.732;2023-04-15T09:13:00;14.70;99.90
21019;DHT22;10667;51.056;3.732;2023-04-15T09:15:26;14.60;99.90
21019;DHT22;10667;51.056;3.732;2023-04-15T09:17:53;14.60;99.90
21019;DHT22;10667;51.056;3.732;2023-04-15T09:20:19;14.90;99.90
21019;DHT22;10667;51.056;3.732;2023-04-15T09:22:47;14.90;99.90
21019;DHT22;10667;51.056;3.732;2023-04-15T09:27:53;15.10;99.90
21019;DHT22;10667;51.056;3.732;2023-04-15T09:30:19;15.30;99.90
21019;DHT22;10667;51.056;3.732;2023-04-15T09:32:53;15.20;99.90
21019;DHT22;10667;51.056;3.732;2023-04-15T09:35:19;15.10;99.90
21019;DHT22;10667;51.056;3.732;2023-04-15T09:37:45;15.30;99.90
21019;DHT22;10667;51.056;3.732;2023-04-15T09:40:12;15.30;99.90
21019;DHT22;10667;51.056;3.732;2023-04-15T09:42:56;15.10;99.90
21019;DHT22;10667;51.056;3.732;2023-04-15T09:45:22;15.10;99.90
21019;DHT22;10667;51.056;3.732;2023-04-15T09:47:48;15.10;99.90
21019;DHT22;10667;51.056;3.732;2023-04-15T09:50:18;15.20;99.90
21019;DHT22;10667;51.056;3.732;2023-04-15T09:52:44;15.30;99.90
21019;DHT22;10667;51.056;3.732;2023-04-15T09:55:11;15.20;99.90
21019;DHT22;10667;51.056;3.732;2023-04-15T09:57:38;15.00;99.90
21019;DHT22;10667;51.056;3.732;2023-04-15T10:00:07;15.10;99.90
21019;DHT22;10667;51.056;3.732;2023-04-15T10:02:38;14.90;99.90
21019;DHT22;10667;51.056;3.732;2023-04-15T10:05:05;14.80;99.90
21019;DHT22;10667;51.056;3.732;2023-04-15T10:07:31;14.90;99.90
21019;DHT22;10667;51.056;3.732;2023-04-15T10:09:59;14.80;99.90
21019;DHT22;10667;51.056;3.732;2023-04-15T10:12:28;14.70;99.90
21019;DHT22;10667;51.056;3.732;2023-04-15T10:14:58;14.80;99.90
21019;DHT22;10667;51.056;3.732;2023-04-15T10:17:27;14.90;99.90
21019;DHT22;10667;51.056;3.732;2023-04-15T10:20:00;14.90;99.90
21019;DHT22;10667;51.056;3.732;2023-04-15T10:22:27;14.90;99.90
21019;DHT22;10667;51.056;3.732;2023-04-15T10:24:54;15.10;99.90
21019;DHT22;10667;51.056;3.732;2023-04-15T10:27:20;15.00;99.90
21019;DHT22;10667;51.056;3.732;2023-04-15T10:29:50;15.10;99.90
21019;DHT22;10667;51.056;3.732;2023-04-15T10:32:18;15.20;99.90
21019;DHT22;10667;51.056;3.732;2023-04-15T10:34:45;15.30;99.90
21019;DHT22;10667;51.056;3.732;2023-04-15T10:37:11;15.40;99.90
21019;DHT22;10667;51.056;3.732;2023-04-15T10:39:41;15.50;99.90
21019;DHT22;10667;51.056;3.732;2023-04-15T10:42:16;15.60;99.90
21019;DHT22;10667;51.056;3.732;2023-04-15T10:44:50;15.50;99.90
21019;DHT22;10667;51.056;3.732;2023-04-15T10:47:19;15.60;99.90
21019;DHT22;10667;51.056;3.732;2023-04-15T10:49:48;15.60;99.90
21019;DHT22;10667;51.056;3.732;2023-04-15T10:52:25;15.60;99.90
21019;DHT22;10667;51.056;3.732;2023-04-15T10:55:13;15.70;99.90
21019;DHT22;10667;51.056;3.732;2023-04-15T10:57:41;15.70;99.90
21019;DHT22;10667;51.056;3.732;2023-04-15T11:05:12;15.60;99.90
21019;DHT22;10667;51.056;3.732;2023-04-15T11:07:54;15.70;99.90
21019;DHT22;10667;51.056;3.732;2023-04-15T11:13:25;15.70;99.90
21019;DHT22;10667;51.056;3.732;2023-04-15T11:15:54;15.70;99.90
21019;DHT22;10667;51.056;3.732;2023-04-15T11:18:23;15.80;99.90
21019;DHT22;10667;51.056;3.732;2023-04-15T11:20:52;15.80;99.90
21019;DHT22;10667;51.056;3.732;2023-04-15T11:25:55;16.00;99.90
21019;DHT22;10667;51.056;3.732;2023-04-15T11:28:28;16.00;99.60
21019;DHT22;10667;51.056;3.732;2023-04-15T11:30:55;16.00;99.90
21019;DHT22;10667;51.056;3.732;2023-04-15T11:33:22;16.00;99.90
21019;DHT22;10667;51.056;3.732;2023-04-15T11:35:48;15.90;97.60
21019;DHT22;10667;51.056;3.732;2023-04-15T11:38:15;15.90;95.90
21019;DHT22;10667;51.056;3.732;2023-04-15T11:40:42;15.90;95.80
21019;DHT22;10667;51.056;3.732;2023-04-15T11:43:09;15.90;91.60
21019;DHT22;10667;51.056;3.732;2023-04-15T11:45:56;15.80;92.00
21019;DHT22;10667;51.056;3.732;2023-04-15T11:48:27;15.80;88.40
21019;DHT22;10667;51.056;3.732;2023-04-15T11:51:03;15.90;88.90
21019;DHT22;10667;51.056;3.732;2023-04-15T11:53:37;15.90;87.70
21019;DHT22;10667;51.056;3.732;2023-04-15T11:56:03;15.90;90.00
21019;DHT22;10667;51.056;3.732;2023-04-15T11:58:29;15.90;92.70
21019;DHT22;10667;51.056;3.732;2023-04-15T12:01:00;15.90;96.20
21019;DHT22;10667;51.056;3.732;2023-04-15T12:03:27;15.90;96.40
21019;DHT22;10667;51.056;3.732;2023-04-15T12:06:13;15.80;94.20
21019;DHT22;10667;51.056;3.732;2023-04-15T12:11:36;16.10;92.50
21019;DHT22;10667;51.056;3.732;2023-04-15T12:16:50;16.20;96.30
21019;DHT22;10667;51.056;3.732;2023-04-15T12:22:04;16.30;97.60
21019;DHT22;10667;51.056;3.732;2023-04-15T12:24:34;16.20;95.40
21019;DHT22;10667;51.056;3.732;2023-04-15T12:27:05;16.00;94.60
21019;DHT22;10667;51.056;3.732;2023-04-15T12:29:33;16.10;95.00
21019;DHT22;10667;51.056;3.732;2023-04-15T12:32:15;16.20;96.20
21019;DHT22;10667;51.056;3.732;2023-04-15T12:34:52;16.10;94.60
21019;DHT22;10667;51.056;3.732;2023-04-15T12:37:18;16.10;94.00
21019;DHT22;10667;51.056;3.732;2023-04-15T12:39:45;16.20;92.80
21019;DHT22;10667;51.056;3.732;2023-04-15T12:42:14;16.10;93.00
21019;DHT22;10667;51.056;3.732;2023-04-15T12:44:40;16.20;95.50
21019;DHT22;10667;51.056;3.732;2023-04-15T12:47:08;16.20;96.40
21019;DHT22;10667;51.056;3.732;2023-04-15T12:49:34;16.20;95.50
21019;DHT22;10667;51.056;3.732;2023-04-15T12:52:01;16.20;93.40
21019;DHT22;10667;51.056;3.732;2023-04-15T12:54:27;16.20;93.40
21019;DHT22;10667;51.056;3.732;2023-04-15T12:56:54;16.20;93.80
21019;DHT22;10667;51.056;3.732;2023-04-15T12:59:20;16.20;93.50
21019;DHT22;10667;51.056;3.732;2023-04-15T13:01:48;16.20;94.70
21019;DHT22;10667;51.056;3.732;2023-04-15T13:04:14;16.10;95.70
21019;DHT22;10667;51.056;3.732;2023-04-15T13:06:41;16.10;95.80
21019;DHT22;10667;51.056;3.732;2023-04-15T13:09:07;16.20;95.80
21019;DHT22;10667;51.056;3.732;2023-04-15T13:11:33;16.20;95.60
21019;DHT22;10667;51.056;3.732;2023-04-15T13:14:00;16.30;94.00
21019;DHT22;10667;51.056;3.732;2023-04-15T13:16:26;16.40;92.10
21019;DHT22;10667;51.056;3.732;2023-04-15T13:18:52;16.40;91.00
21019;DHT22;10667;51.056;3.732;2023-04-15T13:21:18;16.40;91.60
21019;DHT22;10667;51.056;3.732;2023-04-15T13:23:44;16.30;91.40
21019;DHT22;10667;51.056;3.732;2023-04-15T13:26:10;16.40;93.50
21019;DHT22;10667;51.056;3.732;2023-04-15T13:28:36;16.30;93.80
21019;DHT22;10667;51.056;3.732;2023-04-15T13:31:01;16.30;94.30
21019;DHT22;10667;51.056;3.732;2023-04-15T13:33:27;16.20;93.50
21019;DHT22;10667;51.056;3.732;2023-04-15T13:35:53;16.20;93.50
21019;DHT22;10667;51.056;3.732;2023-04-15T13:38:19;16.20;92.80
21019;DHT22;10667;51.056;3.732;2023-04-15T13:40:44;16.40;93.10
21019;DHT22;10667;51.056;3.732;2023-04-15T13:43:11;16.50;94.20
21019;DHT22;10667;51.056;3.732;2023-04-15T13:45:36;16.60;94.70
21019;DHT22;10667;51.056;3.732;2023-04-15T13:48:03;16.70;97.00
21019;DHT22;10667;51.056;3.732;2023-04-15T13:50:28;16.80;99.90
21019;DHT22;10667;51.056;3.732;2023-04-15T13:52:54;16.50;99.90
21019;DHT22;10667;51.056;3.732;2023-04-15T13:55:20;16.20;99.90
21019;DHT22;10667;51.056;3.732;2023-04-15T13:57:46;16.20;99.90
21019;DHT22;10667;51.056;3.732;2023-04-15T14:00:12;16.10;99.90
21019;DHT22;10667;51.056;3.732;2023-04-15T14:02:39;16.10;99.90
21019;DHT22;10667;51.056;3.732;2023-04-15T14:05:05;16.10;99.90
21019;DHT22;10667;51.056;3.732;2023-04-15T14:07:31;16.10;99.90
21019;DHT22;10667;51.056;3.732;2023-04-15T14:09:57;16.10;99.90
21019;DHT22;10667;51.056;3.732;2023-04-15T14:12:22;16.00;99.90
21019;DHT22;10667;51.056;3.732;2023-04-15T14:14:48;16.00;99.90
21019;DHT22;10667;51.056;3.732;2023-04-15T14:17:14;15.90;99.90
21019;DHT22;10667;51.056;3.732;2023-04-15T14:19:39;16.00;99.90
21019;DHT22;10667;51.056;3.732;2023-04-15T14:22:05;15.90;99.90
21019;DHT22;10667;51.056;3.732;2023-04-15T14:24:31;15.70;99.90
21019;DHT22;10667;51.056;3.732;2023-04-15T14:26:57;15.60;99.90
21019;DHT22;10667;51.056;3.732;2023-04-15T14:29:23;15.50;99.90
21019;DHT22;10667;51.056;3.732;2023-04-15T14:31:49;15.60;99.90
21019;DHT22;10667;51.056;3.732;2023-04-15T14:34:17;15.60;99.90
21019;DHT22;10667;51.056;3.732;2023-04-15T14:36:43;15.70;99.90
21019;DHT22;10667;51.056;3.732;2023-04-15T14:39:09;15.80;99.90
21019;DHT22;10667;51.056;3.732;2023-04-15T14:41:35;15.80;99.90
21019;DHT22;10667;51.056;3.732;2023-04-15T14:44:01;15.90;99.90
21019;DHT22;10667;51.056;3.732;2023-04-15T14:46:26;15.80;99.90
21019;DHT22;10667;51.056;3.732;2023-04-15T14:48:52;15.70;99.90
21019;DHT22;10667;51.056;3.732;2023-04-15T14:51:18;15.70;99.90
21019;DHT22;10667;51.056;3.732;2023-04-15T14:53:44;15.60;99.90
21019;DHT22;10667;51.056;3.732;2023-04-15T14:56:10;15.60;99.90
21019;DHT22;10667;51.056;3.732;2023-04-15T14:58:36;15.60;99.90
21019;DHT22;10667;51.056;3.732;2023-04-15T15:01:02;15.60;99.90
21019;DHT22;10667;51.056;3.732;2023-04-15T15:03:29;15.70;99.90
21019;DHT22;10667;51.056;3.732;2023-04-15T15:05:55;15.60;99.90
21019;DHT22;10667;51.056;3.732;2023-04-15T15:08:22;15.50;99.90
21019;DHT22;10667;51.056;3.732;2023-04-15T15:10:48;15.50;99.90
21019;DHT22;10667;51.056;3.732;2023-04-15T15:13:14;15.60;99.90
21019;DHT22;10667;51.056;3.732;2023-04-15T15:15:40;15.60;99.90
21019;DHT22;10667;51.056;3.732;2023-04-15T15:18:06;15.60;99.90
21019;DHT22;10667;51.056;3.732;2023-04-15T15:20:32;15.50;99.90
21019;DHT22;10667;51.056;3.732;2023-04-15T15:22:59;15.30;99.90
21019;DHT22;10667;51.056;3.732;2023-04-15T15:25:24;15.20;99.90
21019;DHT22;10667;51.056;3.732;2023-04-15T15:27:50;15.30;99.90
21019;DHT22;10667;51.056;3.732;2023-04-15T15:30:16;15.20;99.90
21019;DHT22;10667;51.056;3.732;2023-04-15T15:32:42;15.10;99.90
21019;DHT22;10667;51.056;3.732;2023-04-15T15:35:09;15.00;99.90
21019;DHT22;10667;51.056;3.732;2023-04-15T15:37:35;14.90;99.90
21019;DHT22;10667;51.056;3.732;2023-04-15T15:40:03;14.90;99.90
21019;DHT22;10667;51.056;3.732;2023-04-15T15:42:32;14.90;99.90
21019;DHT22;10667;51.056;3.732;2023-04-15T15:44:58;14.90;99.90
21019;DHT22;10667;51.056;3.732;2023-04-15T15:47:24;14.90;99.90
21019;DHT22;10667;51.056;3.732;2023-04-15T15:49:54;14.90;99.90